createdAt,value
2024-05-09T00:00:39.236Z,2.97
2024-05-09T00:03:08.394Z,3.22
2024-05-09T00:05:36.548Z,2.72
2024-05-09T00:08:03.842Z,3.22
2024-05-09T00:10:36.315Z,3.20
2024-05-09T00:13:06.082Z,3.50
2024-05-09T00:15:33.810Z,3.25
2024-05-09T00:18:00.936Z,3.55
2024-05-09T00:20:35.993Z,3.88
2024-05-09T00:23:07.238Z,3.50
2024-05-09T00:25:34.350Z,3.30
2024-05-09T00:28:01.260Z,3.95
2024-05-09T00:30:33.394Z,3.85
2024-05-09T00:33:04.054Z,3.50
2024-05-09T00:35:31.364Z,3.67
2024-05-09T00:37:58.046Z,3.75
2024-05-09T00:40:35.148Z,3.78
2024-05-09T00:43:06.314Z,4.00
2024-05-09T00:45:34.216Z,3.95
2024-05-09T00:48:04.912Z,3.55
2024-05-09T00:50:36.518Z,3.53
2024-05-09T00:53:06.140Z,3.80
2024-05-09T00:55:34.042Z,3.30
2024-05-09T00:58:01.221Z,3.53
2024-05-09T01:00:35.679Z,3.90
2024-05-09T01:03:06.408Z,3.87
2024-05-09T01:05:34.330Z,3.53
2024-05-09T01:08:01.343Z,3.55
2024-05-09T01:10:33.865Z,3.45
2024-05-09T01:13:03.050Z,3.78
2024-05-09T01:15:29.639Z,3.35
2024-05-09T01:17:57.045Z,3.67
2024-05-09T01:20:36.355Z,3.65
2024-05-09T01:23:08.869Z,3.50
2024-05-09T01:25:35.782Z,3.53
2024-05-09T01:28:02.470Z,3.58
2024-05-09T01:30:34.676Z,3.42
2024-05-09T01:33:05.250Z,3.65
2024-05-09T01:35:33.000Z,3.90
2024-05-09T01:37:59.703Z,3.58
2024-05-09T01:40:36.197Z,3.83
2024-05-09T01:45:32.203Z,3.80
2024-05-09T01:47:59.124Z,3.70
2024-05-09T01:50:37.077Z,3.25
2024-05-09T01:53:07.758Z,3.30
2024-05-09T01:55:34.470Z,3.10
2024-05-09T01:58:01.092Z,3.15
2024-05-09T02:00:37.611Z,3.22
2024-05-09T02:03:09.669Z,2.80
2024-05-09T02:05:36.963Z,2.80
2024-05-09T02:08:04.619Z,3.05
2024-05-09T02:10:33.075Z,3.25
2024-05-09T02:13:00.170Z,3.08
2024-05-09T02:15:26.820Z,3.40
2024-05-09T02:17:53.761Z,3.75
2024-05-09T02:20:30.127Z,3.33
2024-05-09T02:23:03.823Z,3.30
2024-05-09T02:25:31.018Z,3.10
2024-05-09T02:27:58.355Z,3.38
2024-05-09T02:30:34.942Z,3.13
2024-05-09T02:33:06.598Z,2.67
2024-05-09T02:35:33.585Z,3.00
2024-05-09T02:38:00.399Z,2.60
2024-05-09T02:40:35.585Z,3.20
2024-05-09T02:43:04.964Z,3.83
2024-05-09T02:45:31.593Z,3.72
2024-05-09T02:47:58.556Z,3.20
2024-05-09T02:50:33.809Z,3.60
2024-05-09T02:53:04.980Z,3.00
2024-05-09T02:55:31.637Z,3.40
2024-05-09T02:57:58.215Z,3.22
2024-05-09T03:00:34.211Z,3.17
2024-05-09T03:03:06.466Z,2.92
2024-05-09T03:05:33.662Z,3.15
2024-05-09T03:08:00.323Z,3.65
2024-05-09T03:10:29.116Z,3.50
2024-05-09T03:13:05.880Z,3.63
2024-05-09T03:15:33.029Z,3.50
2024-05-09T03:18:00.750Z,3.35
2024-05-09T03:20:33.293Z,3.50
2024-05-09T03:23:02.058Z,3.65
2024-05-09T03:25:28.730Z,3.47
2024-05-09T03:27:55.278Z,4.10
2024-05-09T03:30:31.080Z,3.78
2024-05-09T03:33:10.427Z,3.60
2024-05-09T03:35:37.247Z,3.53
2024-05-09T03:38:04.147Z,3.58
2024-05-09T03:40:31.413Z,3.78
2024-05-09T03:42:58.732Z,4.13
2024-05-09T03:45:25.541Z,4.20
2024-05-09T03:47:52.665Z,3.50
2024-05-09T03:50:26.374Z,4.07
2024-05-09T03:53:00.272Z,3.80
2024-05-09T03:55:27.074Z,4.30
2024-05-09T03:57:53.636Z,3.67
2024-05-09T04:00:30.392Z,4.47
2024-05-09T04:03:02.590Z,4.30
2024-05-09T04:05:30.726Z,4.63
2024-05-09T04:07:57.664Z,4.13
2024-05-09T04:10:31.315Z,4.05
2024-05-09T04:13:00.761Z,4.25
2024-05-09T04:15:27.471Z,4.53
2024-05-09T04:17:54.242Z,3.75
2024-05-09T04:20:29.565Z,4.20
2024-05-09T04:23:04.398Z,4.30
2024-05-09T04:25:31.953Z,4.25
2024-05-09T04:27:58.521Z,3.70
2024-05-09T04:30:34.594Z,3.67
2024-05-09T04:33:07.119Z,4.13
2024-05-09T04:35:35.148Z,3.80
2024-05-09T04:38:01.880Z,4.03
2024-05-09T04:40:33.802Z,4.05
2024-05-09T04:43:03.990Z,4.07
2024-05-09T04:45:30.697Z,4.30
2024-05-09T04:47:57.488Z,4.75
2024-05-09T04:50:33.814Z,4.50
2024-05-09T04:53:04.976Z,4.70
2024-05-09T04:55:33.079Z,4.43
2024-05-09T04:57:59.774Z,4.82
2024-05-09T05:00:34.498Z,4.65
2024-05-09T05:03:08.879Z,4.63
2024-05-09T05:05:40.845Z,4.50
2024-05-09T05:08:11.795Z,4.32
2024-05-09T05:10:38.376Z,4.78
2024-05-09T05:13:20.008Z,5.40
2024-05-09T05:15:53.593Z,5.28
2024-05-09T05:18:21.011Z,5.38
2024-05-09T05:20:48.004Z,5.22
2024-05-09T05:23:16.801Z,4.93
2024-05-09T05:25:43.979Z,5.10
2024-05-09T05:28:10.991Z,4.95
2024-05-09T05:30:38.171Z,4.88
2024-05-09T05:33:05.857Z,4.38
2024-05-09T05:35:33.133Z,4.03
2024-05-09T05:38:00.011Z,3.92
2024-05-09T05:40:33.319Z,3.95
2024-05-09T05:43:10.668Z,5.13
2024-05-09T05:45:37.680Z,4.53
2024-05-09T05:48:06.089Z,4.13
2024-05-09T05:50:36.547Z,4.20
2024-05-09T05:53:09.129Z,4.13
2024-05-09T05:55:37.018Z,4.30
2024-05-09T05:58:03.782Z,4.38
2024-05-09T06:00:37.843Z,4.13
2024-05-09T06:03:06.852Z,3.97
2024-05-09T06:05:33.796Z,4.18
2024-05-09T06:08:00.907Z,3.70
2024-05-09T06:10:37.144Z,4.03
2024-05-09T06:13:06.599Z,4.05
2024-05-09T06:15:33.191Z,3.95
2024-05-09T06:18:00.087Z,3.90
2024-05-09T06:20:34.521Z,3.80
2024-05-09T06:23:04.506Z,4.03
2024-05-09T06:25:31.740Z,4.05
2024-05-09T06:28:00.793Z,3.58
2024-05-09T06:30:36.631Z,3.42
2024-05-09T06:33:07.186Z,3.60
2024-05-09T06:35:34.310Z,3.33
2024-05-09T06:38:01.362Z,3.65
2024-05-09T06:40:35.880Z,3.42
2024-05-09T06:43:05.259Z,3.58
2024-05-09T06:45:31.818Z,3.45
2024-05-09T06:47:58.531Z,4.00
2024-05-09T06:50:28.507Z,2.50
2024-05-09T06:53:01.923Z,2.72
2024-05-09T06:55:28.501Z,2.88
2024-05-09T06:57:55.077Z,2.95
2024-05-09T07:00:27.742Z,2.67
2024-05-09T07:03:05.567Z,2.78
2024-05-09T07:05:33.247Z,2.97
2024-05-09T07:08:00.094Z,2.45
2024-05-09T07:10:32.862Z,2.58
2024-05-09T07:13:01.965Z,2.85
2024-05-09T07:15:28.576Z,2.60
2024-05-09T07:17:55.494Z,2.47
2024-05-09T07:20:32.297Z,2.80
2024-05-09T07:23:02.843Z,2.90
2024-05-09T07:25:29.738Z,2.38
2024-05-09T07:27:56.519Z,2.35
2024-05-09T07:30:27.907Z,2.28
2024-05-09T07:33:00.246Z,2.38
2024-05-09T07:35:27.297Z,2.42
2024-05-09T07:37:54.266Z,2.58
2024-05-09T07:40:31.555Z,2.70
2024-05-09T07:43:06.877Z,2.15
2024-05-09T07:52:23.773Z,2.33
2024-05-09T07:53:39.325Z,2.33
2024-05-09T07:56:10.112Z,2.10
2024-05-09T07:58:37.506Z,2.25
2024-05-09T08:01:04.715Z,2.30
2024-05-09T08:03:33.822Z,2.10
2024-05-09T08:06:00.654Z,2.10
2024-05-09T08:08:27.325Z,1.80
2024-05-09T08:10:53.966Z,2.00
2024-05-09T08:13:20.748Z,2.30
2024-05-09T08:15:49.084Z,2.30
2024-05-09T08:18:15.991Z,2.03
2024-05-09T08:20:42.733Z,2.10
2024-05-09T08:23:11.062Z,1.75
2024-05-09T08:25:38.516Z,1.90
2024-05-09T08:28:05.465Z,2.20
2024-05-09T08:30:36.877Z,2.00
2024-05-09T08:33:06.386Z,2.33
2024-05-09T08:35:33.814Z,2.00
2024-05-09T08:38:04.253Z,1.85
2024-05-09T08:40:35.569Z,1.83
2024-05-09T08:43:07.565Z,1.83
2024-05-09T08:45:35.443Z,1.80
2024-05-09T08:48:07.602Z,2.00
2024-05-09T08:50:38.912Z,2.33
2024-05-09T08:53:07.277Z,1.90
2024-05-09T08:55:34.104Z,2.13
2024-05-09T08:58:01.133Z,2.17
2024-05-09T09:00:35.828Z,2.00
2024-05-09T09:03:05.985Z,1.85
2024-05-09T09:05:35.325Z,2.17
2024-05-09T09:08:04.719Z,2.13
2024-05-09T09:10:32.731Z,2.28
2024-05-09T09:15:32.380Z,2.28
2024-05-09T09:18:00.440Z,2.00
2024-05-09T09:20:35.317Z,1.83
2024-05-09T09:23:04.098Z,1.88
2024-05-09T09:25:30.965Z,1.83
2024-05-09T09:27:58.119Z,2.08
2024-05-09T09:30:34.675Z,2.03
2024-05-09T09:33:10.598Z,1.90
2024-05-09T09:35:39.481Z,2.35
2024-05-09T09:38:07.581Z,2.35
2024-05-09T09:40:39.216Z,1.88
2024-05-09T09:43:14.676Z,2.10
2024-05-09T09:45:43.677Z,2.38
2024-05-09T09:48:11.917Z,2.22
2024-05-09T09:50:39.120Z,2.08
2024-05-09T09:53:07.267Z,2.17
2024-05-09T09:55:34.826Z,2.00
2024-05-09T09:58:01.505Z,2.10
2024-05-09T10:00:32.977Z,1.92
2024-05-09T10:03:01.165Z,2.10
2024-05-09T10:05:28.843Z,1.98
2024-05-09T10:07:55.853Z,1.85
2024-05-09T10:10:30.378Z,2.50
2024-05-09T10:13:03.689Z,1.73
2024-05-09T10:15:42.622Z,2.08
2024-05-09T10:18:09.385Z,2.15
2024-05-09T10:20:46.003Z,2.28
2024-05-09T10:23:26.244Z,2.22
2024-05-09T10:25:56.246Z,2.15
2024-05-09T10:28:29.808Z,2.30
2024-05-09T10:31:16.013Z,2.05
2024-05-09T10:33:51.439Z,2.20
2024-05-09T10:36:19.907Z,2.00
2024-05-09T10:38:46.582Z,2.10
2024-05-09T10:41:13.183Z,1.95
2024-05-09T10:43:40.840Z,1.90
2024-05-09T10:46:07.950Z,1.80
2024-05-09T10:48:36.105Z,2.10
2024-05-09T10:51:04.210Z,1.70
2024-05-09T10:53:31.518Z,2.05
2024-05-09T10:56:01.609Z,1.70
2024-05-09T10:58:28.652Z,2.05
2024-05-09T11:00:57.699Z,1.77
2024-05-09T11:03:25.132Z,1.90
2024-05-09T11:05:53.365Z,1.80
2024-05-09T11:08:23.638Z,2.07
2024-05-09T11:10:54.158Z,1.70
2024-05-09T11:13:27.802Z,2.22
2024-05-09T11:15:54.691Z,1.90
2024-05-09T11:18:26.205Z,1.90
2024-05-09T11:20:54.883Z,1.80
2024-05-09T11:23:22.699Z,1.73
2024-05-09T11:25:50.079Z,1.77
2024-05-09T11:28:18.055Z,1.90
2024-05-09T11:30:44.677Z,1.83
2024-05-09T11:33:11.905Z,1.73
2024-05-09T11:35:38.507Z,2.00
2024-05-09T11:38:05.161Z,1.60
2024-05-09T11:40:34.429Z,1.95
2024-05-09T11:43:01.537Z,1.95
2024-05-09T11:45:28.452Z,2.00
2024-05-09T11:47:55.313Z,2.03
2024-05-09T11:50:27.327Z,1.75
2024-05-09T11:52:59.062Z,1.83
2024-05-09T11:55:28.110Z,1.73
2024-05-09T11:57:55.488Z,1.80
2024-05-09T12:00:29.640Z,2.03
2024-05-09T12:03:04.797Z,2.00
2024-05-09T12:05:32.151Z,1.90
2024-05-09T12:07:58.949Z,1.70
2024-05-09T12:10:32.696Z,1.77
2024-05-09T12:13:02.104Z,1.60
2024-05-09T12:15:28.990Z,1.67
2024-05-09T12:17:58.359Z,1.80
2024-05-09T12:20:35.144Z,1.70
2024-05-09T12:23:05.054Z,1.67
2024-05-09T12:25:31.652Z,1.38
2024-05-09T12:27:58.312Z,1.73
2024-05-09T12:30:33.209Z,1.50
2024-05-09T12:33:04.900Z,1.75
2024-05-09T12:35:31.697Z,1.80
2024-05-09T12:37:58.338Z,1.77
2024-05-09T12:40:34.224Z,1.80
2024-05-09T12:45:30.595Z,1.67
2024-05-09T12:47:57.309Z,1.88
2024-05-09T12:50:31.043Z,1.88
2024-05-09T12:52:59.655Z,1.52
2024-05-09T12:55:26.981Z,1.65
2024-05-09T12:57:54.912Z,1.67
2024-05-09T13:00:28.142Z,1.50
2024-05-09T13:03:00.351Z,1.75
2024-05-09T13:05:27.390Z,1.52
2024-05-09T13:07:54.178Z,1.60
2024-05-09T13:10:29.012Z,1.60
2024-05-09T13:12:59.322Z,1.48
2024-05-09T13:15:26.106Z,1.55
2024-05-09T13:17:52.847Z,1.65
2024-05-09T13:20:28.885Z,1.70
2024-05-09T13:23:01.765Z,1.40
2024-05-09T13:25:28.376Z,1.60
2024-05-09T13:27:55.473Z,1.60
2024-05-09T13:30:29.671Z,1.50
2024-05-09T13:33:07.029Z,1.50
2024-05-09T13:35:35.954Z,1.67
2024-05-09T13:38:03.340Z,1.50
2024-05-09T13:40:34.373Z,1.40
2024-05-09T13:43:04.097Z,1.55
2024-05-09T13:45:31.596Z,1.73
2024-05-09T13:47:58.688Z,1.40
2024-05-09T13:50:33.273Z,1.60
2024-05-09T13:53:02.810Z,1.52
2024-05-09T13:55:29.468Z,1.50
2024-05-09T13:57:56.387Z,1.52
2024-05-09T14:00:37.389Z,1.52
2024-05-09T14:03:10.069Z,1.33
2024-05-09T14:05:37.038Z,1.50
2024-05-09T14:08:04.078Z,1.73
2024-05-09T14:10:32.016Z,1.40
2024-05-09T14:13:00.286Z,1.30
2024-05-09T14:15:26.997Z,1.45
2024-05-09T14:17:54.344Z,1.60
2024-05-09T14:20:30.318Z,1.33
2024-05-09T14:22:59.165Z,1.90
2024-05-09T14:25:28.284Z,1.73
2024-05-09T14:27:55.218Z,1.50
2024-05-09T14:30:30.500Z,1.60
2024-05-09T14:33:03.781Z,1.60
2024-05-09T14:35:30.600Z,1.50
2024-05-09T14:37:57.197Z,1.30
2024-05-09T14:42:53.967Z,1.55
2024-05-09T14:45:20.628Z,1.70
2024-05-09T14:47:47.343Z,1.80
2024-05-09T14:50:23.506Z,1.40
2024-05-09T14:52:54.690Z,1.40
2024-05-09T14:55:21.307Z,1.30
2024-05-09T14:57:47.970Z,1.35
2024-05-09T15:00:21.448Z,1.40
2024-05-09T15:02:55.127Z,1.60
2024-05-09T15:05:21.867Z,1.70
2024-05-09T15:07:48.821Z,1.40
2024-05-09T15:10:23.805Z,1.27
2024-05-09T15:12:58.122Z,1.30
2024-05-09T15:15:24.755Z,1.30
2024-05-09T15:17:51.549Z,1.50
2024-05-09T15:20:26.718Z,1.35
2024-05-09T15:22:58.122Z,1.35
2024-05-09T15:25:24.738Z,1.58
2024-05-09T15:27:51.445Z,1.40
2024-05-09T15:30:24.445Z,1.20
2024-05-09T15:32:56.984Z,1.58
2024-05-09T15:35:23.589Z,1.50
2024-05-09T15:37:50.322Z,1.40
2024-05-09T15:40:26.223Z,1.25
2024-05-09T15:43:02.012Z,1.40
2024-05-09T15:45:32.070Z,1.55
2024-05-09T15:47:59.128Z,1.38
2024-05-09T15:50:35.569Z,1.75
2024-05-09T15:53:06.329Z,1.50
2024-05-09T15:55:33.960Z,1.52
2024-05-09T15:58:01.900Z,1.40
2024-05-09T16:00:36.636Z,1.33
2024-05-09T16:03:06.913Z,1.60
2024-05-09T16:05:33.913Z,1.40
2024-05-09T16:08:00.684Z,1.50
2024-05-09T16:10:32.439Z,1.42
2024-05-09T16:13:01.048Z,1.40
2024-05-09T16:15:27.785Z,1.25
2024-05-09T16:17:57.630Z,1.33
2024-05-09T16:22:54.304Z,1.35
2024-05-09T16:25:20.917Z,1.17
2024-05-09T16:27:47.676Z,1.30
2024-05-09T16:30:21.241Z,1.30
2024-05-09T16:32:54.854Z,1.30
2024-05-09T16:35:21.507Z,1.23
2024-05-09T16:37:48.132Z,1.40
2024-05-09T16:40:22.173Z,1.42
2024-05-09T16:42:56.752Z,1.48
2024-05-09T16:45:24.078Z,1.48
2024-05-09T16:47:50.710Z,1.33
2024-05-09T16:50:25.698Z,1.40
2024-05-09T16:52:55.720Z,1.48
2024-05-09T16:55:22.439Z,1.63
2024-05-09T16:57:49.440Z,1.50
2024-05-09T17:00:25.232Z,1.40
2024-05-09T17:02:58.222Z,1.20
2024-05-09T17:05:25.243Z,1.27
2024-05-09T17:07:51.901Z,1.40
2024-05-09T17:10:26.620Z,1.58
2024-05-09T17:12:58.849Z,1.70
2024-05-09T17:15:25.698Z,1.33
2024-05-09T17:17:52.355Z,1.60
2024-05-09T17:20:29.255Z,1.55
2024-05-09T17:23:00.344Z,1.58
2024-05-09T17:25:27.195Z,1.60
2024-05-09T17:27:54.326Z,1.45
2024-05-09T17:30:28.840Z,1.40
2024-05-09T17:33:01.340Z,1.33
2024-05-09T17:35:28.181Z,1.60
2024-05-09T17:37:54.892Z,1.48
2024-05-09T17:40:30.696Z,1.58
2024-05-09T17:43:01.018Z,1.70
2024-05-09T17:45:27.645Z,1.30
2024-05-09T17:47:54.454Z,1.70
2024-05-09T17:50:27.549Z,1.52
2024-05-09T17:53:00.574Z,1.65
2024-05-09T17:55:28.455Z,1.75
2024-05-09T17:57:55.417Z,1.50
2024-05-09T18:00:32.687Z,1.40
2024-05-09T18:03:05.376Z,1.55
2024-05-09T18:05:32.394Z,1.50
2024-05-09T18:07:59.179Z,1.30
2024-05-09T18:10:32.983Z,1.30
2024-05-09T18:13:05.136Z,1.33
2024-05-09T18:15:32.009Z,1.45
2024-05-09T18:17:58.758Z,1.58
2024-05-09T18:20:36.100Z,1.35
2024-05-09T18:23:08.252Z,1.35
2024-05-09T18:25:34.905Z,1.70
2024-05-09T18:28:02.491Z,1.42
2024-05-09T18:30:34.701Z,1.60
2024-05-09T18:33:03.942Z,1.50
2024-05-09T18:35:30.947Z,1.73
2024-05-09T18:37:57.521Z,1.23
2024-05-09T18:40:32.406Z,1.42
2024-05-09T18:43:02.517Z,1.48
2024-05-09T18:45:29.314Z,1.38
2024-05-09T18:47:56.131Z,1.40
2024-05-09T18:50:31.942Z,1.45
2024-05-09T18:53:03.366Z,1.60
2024-05-09T18:55:29.988Z,1.77
2024-05-09T18:57:57.018Z,1.40
2024-05-09T19:00:33.144Z,1.40
2024-05-09T19:03:05.151Z,1.30
2024-05-09T19:05:32.764Z,1.30
2024-05-09T19:07:59.615Z,1.85
2024-05-09T19:10:32.200Z,1.30
2024-05-09T19:13:02.843Z,1.40
2024-05-09T19:17:57.540Z,1.40
2024-05-09T19:20:28.722Z,1.40
2024-05-09T19:23:00.398Z,1.38
2024-05-09T19:25:26.969Z,1.10
2024-05-09T19:27:53.721Z,1.50
2024-05-09T19:30:29.740Z,1.30
2024-05-09T19:33:05.375Z,1.63
2024-05-09T19:35:32.385Z,1.40
2024-05-09T19:37:59.057Z,1.60
2024-05-09T19:40:31.138Z,1.30
2024-05-09T19:42:59.956Z,1.55
2024-05-09T19:45:26.566Z,1.83
2024-05-09T19:47:53.575Z,1.40
2024-05-09T19:50:27.033Z,1.50
2024-05-09T19:53:02.841Z,1.30
2024-05-09T19:55:29.536Z,1.50
2024-05-09T19:57:56.164Z,1.33
2024-05-09T20:00:29.451Z,1.60
2024-05-09T20:05:30.738Z,1.52
2024-05-09T20:07:57.769Z,1.40
2024-05-09T20:10:29.837Z,1.65
2024-05-09T20:12:59.441Z,1.65
2024-05-09T20:15:26.083Z,1.52
2024-05-09T20:17:53.693Z,1.42
2024-05-09T20:20:28.645Z,1.30
2024-05-09T20:23:03.292Z,1.70
2024-05-09T20:25:29.865Z,1.42
2024-05-09T20:27:56.478Z,1.50
2024-05-09T20:30:30.596Z,1.40
2024-05-09T20:32:59.407Z,1.40
2024-05-09T20:35:26.597Z,1.30
2024-05-09T20:37:53.772Z,1.30
2024-05-09T20:40:28.367Z,1.80
2024-05-09T20:42:59.274Z,1.50
2024-05-09T20:45:26.000Z,1.50
2024-05-09T20:47:53.522Z,1.52
2024-05-09T20:50:28.639Z,1.40
2024-05-09T20:53:03.086Z,1.50
2024-05-09T20:55:30.121Z,1.67
2024-05-09T20:57:57.228Z,1.42
2024-05-09T21:00:34.406Z,1.40
2024-05-09T21:03:06.712Z,1.50
2024-05-09T21:05:34.641Z,1.50
2024-05-09T21:08:01.682Z,1.85
2024-05-09T21:10:32.691Z,1.63
2024-05-09T21:13:00.885Z,1.38
2024-05-09T21:15:27.607Z,1.27
2024-05-09T21:17:54.225Z,1.77
2024-05-09T21:20:28.100Z,1.35
2024-05-09T21:22:57.615Z,1.55
2024-05-09T21:25:24.349Z,1.55
2024-05-09T21:27:52.345Z,1.55
2024-05-09T21:30:31.437Z,1.40
2024-05-09T21:33:08.617Z,1.55
2024-05-09T21:35:36.239Z,1.60
2024-05-09T21:38:04.319Z,1.67
2024-05-09T21:40:34.605Z,1.63
2024-05-09T21:43:03.622Z,1.60
2024-05-09T21:45:30.515Z,1.92
2024-05-09T21:47:57.196Z,1.65
2024-05-09T21:50:31.795Z,1.70
2024-05-09T21:53:05.435Z,1.63
2024-05-09T21:55:32.038Z,1.85
2024-05-09T21:57:58.672Z,1.60
2024-05-09T22:00:34.489Z,1.73
2024-05-09T22:03:04.623Z,1.60
2024-05-09T22:05:31.424Z,1.70
2024-05-09T22:07:58.084Z,1.50
2024-05-09T22:10:30.722Z,1.92
2024-05-09T22:13:01.116Z,1.60
2024-05-09T22:15:28.019Z,1.73
2024-05-09T22:17:56.046Z,1.67
2024-05-09T22:20:29.419Z,2.30
2024-05-09T22:23:03.848Z,1.90
2024-05-09T22:25:31.311Z,1.70
2024-05-09T22:27:58.884Z,1.88
2024-05-09T22:30:34.132Z,1.77
2024-05-09T22:33:05.849Z,1.75
2024-05-09T22:35:32.755Z,1.63
2024-05-09T22:37:59.524Z,1.80
2024-05-09T22:40:38.047Z,1.80
2024-05-09T22:43:12.831Z,1.60
2024-05-09T22:45:39.708Z,1.67
2024-05-09T22:48:07.736Z,1.75
2024-05-09T22:50:34.632Z,1.75
2024-05-09T22:53:01.450Z,1.80
2024-05-09T22:55:28.344Z,1.75
2024-05-09T22:57:55.421Z,1.55
2024-05-09T23:00:30.440Z,1.70
2024-05-09T23:03:02.164Z,1.95
2024-05-09T23:05:29.247Z,2.00
2024-05-09T23:07:56.109Z,1.75
2024-05-09T23:10:30.899Z,1.77
2024-05-09T23:13:01.878Z,1.63
2024-05-09T23:15:28.796Z,1.80
2024-05-09T23:17:57.121Z,1.67
2024-05-09T23:20:33.411Z,1.95
2024-05-09T23:23:05.176Z,1.67
2024-05-09T23:25:31.786Z,1.67
2024-05-09T23:27:58.633Z,1.70
2024-05-09T23:32:55.108Z,1.80
2024-05-09T23:35:21.932Z,2.28
2024-05-09T23:37:48.532Z,2.17
2024-05-09T23:40:18.799Z,2.00
2024-05-09T23:42:49.249Z,1.98
2024-05-09T23:45:15.867Z,2.28
2024-05-09T23:47:43.601Z,2.20
2024-05-09T23:50:16.786Z,1.95
2024-05-09T23:52:50.142Z,2.25
2024-05-09T23:55:16.796Z,1.98
2024-05-09T23:57:44.089Z,1.90
